createdAt,value
2024-03-04T00:01:16.287Z,7.27
2024-03-04T00:03:45.644Z,7.63
2024-03-04T00:06:13.611Z,8.10
2024-03-04T00:08:41.566Z,7.30
2024-03-04T00:11:11.668Z,7.67
2024-03-04T00:13:39.700Z,8.13
2024-03-04T00:16:10.267Z,7.50
2024-03-04T00:18:38.190Z,8.40
2024-03-04T00:21:07.773Z,8.67
2024-03-04T00:23:35.786Z,7.57
2024-03-04T00:26:03.792Z,7.30
2024-03-04T00:28:32.741Z,7.90
2024-03-04T00:31:01.380Z,7.50
2024-03-04T00:33:32.575Z,8.00
2024-03-04T00:36:00.863Z,7.60
2024-03-04T00:38:30.111Z,7.40
2024-03-04T00:40:58.011Z,8.30
2024-03-04T00:43:26.025Z,8.27
2024-03-04T00:45:53.952Z,7.60
2024-03-04T00:48:21.832Z,9.60
2024-03-04T00:50:50.740Z,10.70
2024-03-04T00:53:18.604Z,10.00
2024-03-04T00:55:48.830Z,8.00
2024-03-04T00:58:16.850Z,9.60
2024-03-04T01:00:45.235Z,7.87
2024-03-04T01:03:13.293Z,8.50
2024-03-04T01:05:41.738Z,7.73
2024-03-04T01:08:10.914Z,8.60
2024-03-04T01:10:39.201Z,7.70
2024-03-04T01:13:08.830Z,7.37
2024-03-04T01:15:37.123Z,7.43
2024-03-04T01:18:06.378Z,8.70
2024-03-04T01:20:34.478Z,8.37
2024-03-04T01:23:02.453Z,9.50
2024-03-04T01:25:30.614Z,8.50
2024-03-04T01:27:58.619Z,8.90
2024-03-04T01:30:28.353Z,8.37
2024-03-04T01:32:57.799Z,9.03
2024-03-04T01:35:25.823Z,8.00
2024-03-04T01:37:53.906Z,8.00
2024-03-04T01:40:21.961Z,9.37
2024-03-04T01:42:49.858Z,9.00
2024-03-04T01:45:25.796Z,9.13
2024-03-04T01:47:57.809Z,7.67
2024-03-04T01:50:28.939Z,8.40
2024-03-04T01:52:59.429Z,8.23
2024-03-04T01:55:28.633Z,8.57
2024-03-04T01:57:57.786Z,9.00
2024-03-04T02:00:26.798Z,9.37
2024-03-04T02:02:57.731Z,10.47
2024-03-04T02:05:25.850Z,10.00
2024-03-04T02:07:53.795Z,12.53
2024-03-04T02:10:23.135Z,12.30
2024-03-04T02:12:51.502Z,11.17
2024-03-04T02:15:20.323Z,11.50
2024-03-04T02:17:48.298Z,10.87
2024-03-04T02:20:20.853Z,11.80
2024-03-04T02:22:50.835Z,10.87
2024-03-04T02:25:20.480Z,10.10
2024-03-04T02:27:48.473Z,11.83
2024-03-04T02:30:16.719Z,9.80
2024-03-04T02:32:44.964Z,10.80
2024-03-04T02:35:13.549Z,11.73
2024-03-04T02:37:41.718Z,10.50
2024-03-04T02:40:12.640Z,9.97
2024-03-04T02:42:41.874Z,10.77
2024-03-04T02:45:10.668Z,10.43
2024-03-04T02:47:38.588Z,10.73
2024-03-04T02:50:08.706Z,11.20
2024-03-04T02:52:36.585Z,9.37
2024-03-04T02:55:05.354Z,11.37
2024-03-04T02:57:34.889Z,11.03
2024-03-04T03:00:02.826Z,10.10
2024-03-04T03:02:30.765Z,11.10
2024-03-04T03:04:58.763Z,9.90
2024-03-04T03:07:26.994Z,9.23
2024-03-04T03:09:55.404Z,11.13
2024-03-04T03:12:23.441Z,8.40
2024-03-04T03:14:52.771Z,9.23
2024-03-04T03:17:21.520Z,9.27
2024-03-04T03:19:49.700Z,9.57
2024-03-04T03:22:18.895Z,8.70
2024-03-04T03:24:47.410Z,9.77
2024-03-04T03:27:15.300Z,10.40
2024-03-04T03:29:43.181Z,9.90
2024-03-04T03:32:12.412Z,10.70
2024-03-04T03:34:40.382Z,10.67
2024-03-04T03:37:08.398Z,12.03
2024-03-04T03:39:36.351Z,11.70
2024-03-04T03:42:08.999Z,12.57
2024-03-04T03:44:36.969Z,12.20
2024-03-04T03:47:05.179Z,12.20
2024-03-04T03:49:35.496Z,10.60
2024-03-04T03:52:04.203Z,12.20
2024-03-04T03:54:32.835Z,11.50
2024-03-04T03:57:00.775Z,9.43
2024-03-04T03:59:28.672Z,8.70
2024-03-04T04:01:57.797Z,8.57
2024-03-04T04:04:26.907Z,9.67
2024-03-04T04:06:56.622Z,10.70
2024-03-04T04:09:24.583Z,11.80
2024-03-04T04:11:52.631Z,11.63
2024-03-04T04:14:20.568Z,12.37
2024-03-04T04:16:48.477Z,12.40
2024-03-04T04:19:18.158Z,12.53
2024-03-04T04:21:46.121Z,16.40
2024-03-04T04:24:15.587Z,13.70
2024-03-04T04:26:43.479Z,16.27
2024-03-04T04:29:11.716Z,16.20
2024-03-04T04:31:39.816Z,16.77
2024-03-04T04:34:07.820Z,15.00
2024-03-04T04:36:36.150Z,16.47
2024-03-04T04:39:04.092Z,14.53
2024-03-04T04:41:36.248Z,15.20
2024-03-04T04:44:04.493Z,15.47
2024-03-04T04:46:32.452Z,17.10
2024-03-04T04:49:00.378Z,16.20
2024-03-04T04:51:28.505Z,19.83
2024-03-04T04:53:56.446Z,16.13
2024-03-04T04:56:24.643Z,15.87
2024-03-04T04:58:53.896Z,17.47
2024-03-04T05:01:28.538Z,17.53
2024-03-04T05:04:14.403Z,15.40
2024-03-04T05:06:47.569Z,18.00
2024-03-04T05:09:15.640Z,17.27
2024-03-04T05:11:43.501Z,18.03
2024-03-04T05:14:14.081Z,18.93
2024-03-04T05:16:42.052Z,19.87
2024-03-04T05:19:09.981Z,19.60
2024-03-04T05:21:37.934Z,19.27
2024-03-04T05:24:06.613Z,19.23
2024-03-04T05:26:34.529Z,19.17
2024-03-04T05:29:02.472Z,19.30
2024-03-04T05:31:32.050Z,20.10
2024-03-04T05:34:00.444Z,19.13
2024-03-04T05:36:28.635Z,19.97
2024-03-04T05:38:56.539Z,16.80
2024-03-04T05:41:24.891Z,17.60
2024-03-04T05:43:53.111Z,17.17
2024-03-04T05:46:21.336Z,18.47
2024-03-04T05:48:50.806Z,18.00
2024-03-04T05:51:18.742Z,18.40
2024-03-04T05:53:46.627Z,19.13
2024-03-04T05:56:15.814Z,19.70
2024-03-04T05:58:44.032Z,19.10
2024-03-04T06:01:16.375Z,15.93
2024-03-04T06:03:44.364Z,18.23
2024-03-04T06:06:13.754Z,16.70
2024-03-04T06:08:41.631Z,16.23
2024-03-04T06:11:09.545Z,17.33
2024-03-04T06:13:37.596Z,17.17
2024-03-04T06:16:05.866Z,16.73
2024-03-04T06:18:33.860Z,15.97
2024-03-04T06:21:01.781Z,15.93
2024-03-04T06:23:31.017Z,16.07
2024-03-04T06:25:58.930Z,14.87
2024-03-04T06:28:27.001Z,15.57
2024-03-04T06:30:55.196Z,14.47
2024-03-04T06:33:24.665Z,14.30
2024-03-04T06:35:55.980Z,15.53
2024-03-04T06:38:27.773Z,14.60
2024-03-04T06:40:58.453Z,15.77
2024-03-04T06:43:26.683Z,15.10
2024-03-04T06:45:55.282Z,14.13
2024-03-04T06:48:23.212Z,15.27
2024-03-04T06:50:51.155Z,13.60
2024-03-04T06:53:19.145Z,14.30
2024-03-04T06:55:47.194Z,13.53
2024-03-04T06:58:16.682Z,12.70
2024-03-04T07:00:44.696Z,14.20
2024-03-04T07:03:13.051Z,15.10
2024-03-04T07:05:40.917Z,13.20
2024-03-04T07:08:09.051Z,13.93
2024-03-04T07:10:37.789Z,13.20
2024-03-04T07:13:06.287Z,13.10
2024-03-04T07:15:35.634Z,13.60
2024-03-04T07:18:03.701Z,14.30
2024-03-04T07:20:31.701Z,11.47
2024-03-04T07:23:00.088Z,12.17
2024-03-04T07:25:28.066Z,13.27
2024-03-04T07:27:56.015Z,11.03
2024-03-04T07:30:24.292Z,11.00
2024-03-04T07:32:53.631Z,11.03
2024-03-04T07:35:21.612Z,10.83
2024-03-04T07:37:49.520Z,10.50
2024-03-04T07:40:17.922Z,10.23
2024-03-04T07:42:46.058Z,11.80
2024-03-04T07:45:14.117Z,12.27
2024-03-04T07:47:42.510Z,11.00
2024-03-04T07:50:13.396Z,10.07
2024-03-04T07:52:41.361Z,9.70
2024-03-04T07:55:12.711Z,11.10
2024-03-04T07:57:41.561Z,10.20
2024-03-04T08:00:10.848Z,10.97
2024-03-04T08:02:39.528Z,10.37
2024-03-04T08:05:08.112Z,10.47
2024-03-04T08:07:37.651Z,11.97
2024-03-04T08:10:08.115Z,10.30
2024-03-04T08:12:36.145Z,11.93
2024-03-04T08:15:04.195Z,11.87
2024-03-04T08:17:33.941Z,11.47
2024-03-04T08:20:02.657Z,10.90
2024-03-04T08:22:31.025Z,10.70
2024-03-04T08:25:00.848Z,9.70
2024-03-04T08:27:29.070Z,10.73
2024-03-04T08:29:57.017Z,10.60
2024-03-04T08:32:25.032Z,10.73
2024-03-04T08:34:53.036Z,12.57
2024-03-04T08:37:21.149Z,8.90
2024-03-04T08:39:50.649Z,9.87
2024-03-04T08:42:19.948Z,10.13
2024-03-04T08:44:48.178Z,11.53
2024-03-04T08:47:16.131Z,8.90
2024-03-04T08:49:44.144Z,10.73
2024-03-04T08:52:12.084Z,10.20
2024-03-04T08:54:40.066Z,11.30
2024-03-04T08:57:08.895Z,10.43
2024-03-04T08:59:39.372Z,10.33
2024-03-04T09:02:08.502Z,10.20
2024-03-04T09:04:36.777Z,9.93
2024-03-04T09:07:04.888Z,10.30
2024-03-04T09:09:33.233Z,10.30
2024-03-04T09:12:04.863Z,11.47
2024-03-04T09:14:32.828Z,11.53
2024-03-04T09:17:02.260Z,10.90
2024-03-04T09:19:30.202Z,9.83
2024-03-04T09:21:58.467Z,9.77
2024-03-04T09:24:26.486Z,10.10
2024-03-04T09:26:55.526Z,10.20
2024-03-04T09:29:23.434Z,11.47
2024-03-04T09:31:51.363Z,11.20
2024-03-04T09:34:21.024Z,11.20
2024-03-04T09:36:50.278Z,10.63
2024-03-04T09:39:18.422Z,11.00
2024-03-04T09:41:46.749Z,11.90
2024-03-04T09:44:16.185Z,12.20
2024-03-04T09:46:46.927Z,11.23
2024-03-04T09:49:17.222Z,10.90
2024-03-04T09:51:47.492Z,11.00
2024-03-04T09:54:16.660Z,12.30
2024-03-04T09:56:44.967Z,11.83
2024-03-04T09:59:13.215Z,12.67
2024-03-04T10:01:42.168Z,12.30
2024-03-04T10:04:10.257Z,12.37
2024-03-04T10:06:38.416Z,12.63
2024-03-04T10:09:09.368Z,11.13
2024-03-04T10:11:37.421Z,11.50
2024-03-04T10:14:05.844Z,10.90
2024-03-04T10:16:33.907Z,11.00
2024-03-04T10:19:04.772Z,10.43
2024-03-04T10:21:33.273Z,12.20
2024-03-04T10:24:08.117Z,11.17
2024-03-04T10:26:43.508Z,9.53
2024-03-04T10:29:13.771Z,9.90
2024-03-04T10:31:52.198Z,10.27
2024-03-04T10:34:21.087Z,9.30
2024-03-04T10:36:50.077Z,9.77
2024-03-04T10:39:18.362Z,11.10
2024-03-04T10:41:49.802Z,11.80
2024-03-04T10:44:27.593Z,11.33
2024-03-04T10:47:00.553Z,10.30
2024-03-04T10:49:31.497Z,9.87
2024-03-04T10:52:08.639Z,10.93
2024-03-04T10:54:42.066Z,9.63
2024-03-04T10:57:24.819Z,10.63
2024-03-04T10:59:56.502Z,10.43
2024-03-04T11:02:33.833Z,10.10
2024-03-04T11:05:04.761Z,10.40
2024-03-04T11:07:35.072Z,9.60
2024-03-04T11:10:08.341Z,11.67
2024-03-04T11:12:41.115Z,9.57
2024-03-04T11:15:18.489Z,11.80
2024-03-04T11:17:50.564Z,9.23
2024-03-04T11:20:21.396Z,9.73
2024-03-04T11:22:51.115Z,11.33
2024-03-04T11:25:19.760Z,10.20
2024-03-04T11:27:51.169Z,10.00
2024-03-04T11:30:20.108Z,10.77
2024-03-04T11:32:48.020Z,9.90
2024-03-04T11:35:29.082Z,11.00
2024-03-04T11:38:07.420Z,11.83
2024-03-04T11:40:35.526Z,10.90
2024-03-04T11:43:05.275Z,9.60
2024-03-04T11:45:34.865Z,10.00
2024-03-04T11:48:03.324Z,10.00
2024-03-04T11:50:48.309Z,10.20
2024-03-04T11:53:28.804Z,9.00
2024-03-04T11:55:57.609Z,9.57
2024-03-04T11:58:27.356Z,9.70
2024-03-04T12:01:03.981Z,10.30
2024-03-04T12:03:37.605Z,10.57
2024-03-04T12:06:07.478Z,9.63
2024-03-04T12:08:51.383Z,11.30
2024-03-04T12:11:24.390Z,10.37
2024-03-04T12:13:55.302Z,8.90
2024-03-04T12:16:23.303Z,9.23
2024-03-04T12:18:51.276Z,9.80
2024-03-04T12:21:20.554Z,10.43
2024-03-04T12:23:48.523Z,10.30
2024-03-04T12:26:29.796Z,10.53
2024-03-04T12:29:08.324Z,10.17
2024-03-04T12:31:38.920Z,10.40
2024-03-04T12:34:09.011Z,11.33
2024-03-04T12:36:43.431Z,9.70
2024-03-04T12:39:13.921Z,10.60
2024-03-04T12:41:42.021Z,10.60
2024-03-04T12:44:11.276Z,10.20
2024-03-04T12:46:39.613Z,12.80
2024-03-04T12:49:08.338Z,9.80
2024-03-04T12:51:37.092Z,10.40
2024-03-04T12:54:06.003Z,10.87
2024-03-04T12:56:34.162Z,10.70
2024-03-04T12:59:02.554Z,10.47
2024-03-04T13:01:32.784Z,10.50
2024-03-04T13:04:04.878Z,10.00
2024-03-04T13:06:32.860Z,10.97
2024-03-04T13:09:00.776Z,9.37
2024-03-04T13:11:29.201Z,9.83
2024-03-04T13:13:57.144Z,11.27
2024-03-04T13:16:25.131Z,10.97
2024-03-04T13:18:55.105Z,10.40
2024-03-04T13:21:23.056Z,10.20
2024-03-04T13:23:51.085Z,10.43
2024-03-04T13:26:19.057Z,12.80
2024-03-04T13:28:47.006Z,9.90
2024-03-04T13:31:15.218Z,9.80
2024-03-04T13:33:43.311Z,10.53
2024-03-04T13:36:12.653Z,11.27
2024-03-04T13:38:40.573Z,11.10
2024-03-04T13:41:08.485Z,11.27
2024-03-04T13:43:36.515Z,9.73
2024-03-04T13:46:05.101Z,11.97
2024-03-04T13:48:33.239Z,10.17
2024-03-04T13:51:01.230Z,10.90
2024-03-04T13:53:30.618Z,12.17
2024-03-04T13:55:58.555Z,10.23
2024-03-04T13:58:26.638Z,11.60
2024-03-04T14:00:54.910Z,10.50
2024-03-04T14:03:23.149Z,11.10
2024-03-04T14:05:51.060Z,11.10
2024-03-04T14:08:19.163Z,12.30
2024-03-04T14:10:48.548Z,11.23
2024-03-04T14:13:16.625Z,10.77
2024-03-04T14:15:47.616Z,11.40
2024-03-04T14:18:15.745Z,11.30
2024-03-04T14:20:43.675Z,10.60
2024-03-04T14:23:11.907Z,10.40
2024-03-04T14:25:39.884Z,11.90
2024-03-04T14:28:09.376Z,10.33
2024-03-04T14:30:37.394Z,10.13
2024-03-04T14:33:06.225Z,9.03
2024-03-04T14:35:35.729Z,12.17
2024-03-04T14:38:04.921Z,11.10
2024-03-04T14:40:33.093Z,10.50
2024-03-04T14:43:01.499Z,11.27
2024-03-04T14:45:31.005Z,10.70
2024-03-04T14:47:59.108Z,11.80
2024-03-04T14:50:27.206Z,11.33
2024-03-04T14:52:55.166Z,12.30
2024-03-04T14:55:23.712Z,11.33
2024-03-04T14:57:52.527Z,10.30
2024-03-04T15:00:22.144Z,10.30
2024-03-04T15:02:52.303Z,9.60
2024-03-04T15:05:21.023Z,10.17
2024-03-04T15:07:49.034Z,11.50
2024-03-04T15:10:17.041Z,12.33
2024-03-04T15:12:46.183Z,11.00
2024-03-04T15:15:15.571Z,12.10
2024-03-04T15:17:43.950Z,10.83
2024-03-04T15:20:13.792Z,12.23
2024-03-04T15:22:43.252Z,10.90
2024-03-04T15:25:12.411Z,12.07
2024-03-04T15:27:40.777Z,10.30
2024-03-04T15:30:09.965Z,12.30
2024-03-04T15:32:37.991Z,11.93
2024-03-04T15:35:07.688Z,12.07
2024-03-04T15:37:37.511Z,12.47
2024-03-04T15:40:07.372Z,11.33
2024-03-04T15:42:35.951Z,10.37
2024-03-04T15:45:06.635Z,12.27
2024-03-04T15:47:35.545Z,11.20
2024-03-04T15:50:03.525Z,10.47
2024-03-04T15:52:31.597Z,9.63
2024-03-04T15:55:00.920Z,10.73
2024-03-04T15:57:28.876Z,11.00
2024-03-04T15:59:56.864Z,13.40
2024-03-04T16:02:24.966Z,9.97
2024-03-04T16:04:54.251Z,10.13
2024-03-04T16:07:22.313Z,11.80
2024-03-04T16:09:50.415Z,10.80
2024-03-04T16:12:19.731Z,12.10
2024-03-04T16:14:47.634Z,12.10
2024-03-04T16:17:15.892Z,17.10
2024-03-04T16:19:44.021Z,12.80
2024-03-04T16:22:12.189Z,12.27
2024-03-04T16:24:40.616Z,11.70
2024-03-04T16:27:08.889Z,10.90
2024-03-04T16:29:40.468Z,14.10
2024-03-04T16:32:09.080Z,11.17
2024-03-04T16:34:37.445Z,12.77
2024-03-04T16:37:05.795Z,11.70
2024-03-04T16:39:35.170Z,12.27
2024-03-04T16:42:03.950Z,11.40
2024-03-04T16:44:31.926Z,12.03
2024-03-04T16:47:01.336Z,10.43
2024-03-04T16:49:29.724Z,9.50
2024-03-04T16:51:58.357Z,10.77
2024-03-04T16:54:26.285Z,11.03
2024-03-04T16:56:54.240Z,13.07
2024-03-04T16:59:23.268Z,11.00
2024-03-04T17:01:51.387Z,11.07
2024-03-04T17:04:22.189Z,11.67
2024-03-04T17:06:50.438Z,10.90
2024-03-04T17:09:19.325Z,12.37
2024-03-04T17:11:47.409Z,11.47
2024-03-04T17:14:15.423Z,11.60
2024-03-04T17:16:44.722Z,11.73
2024-03-04T17:19:13.284Z,11.10
2024-03-04T17:21:46.479Z,10.80
2024-03-04T17:24:15.068Z,11.90
2024-03-04T17:26:44.003Z,10.87
2024-03-04T17:29:12.330Z,11.77
2024-03-04T17:31:40.550Z,10.93
2024-03-04T17:34:08.658Z,10.50
2024-03-04T17:36:41.177Z,11.17
2024-03-04T17:39:11.282Z,11.80
2024-03-04T17:41:39.590Z,10.77
2024-03-04T17:44:08.641Z,10.47
2024-03-04T17:46:41.509Z,11.93
2024-03-04T17:49:09.529Z,11.10
2024-03-04T17:51:42.102Z,11.63
2024-03-04T17:54:11.726Z,10.10
2024-03-04T17:56:39.894Z,12.00
2024-03-04T17:59:08.186Z,12.80
2024-03-04T18:01:36.780Z,10.40
2024-03-04T18:04:05.692Z,11.70
2024-03-04T18:06:34.702Z,10.80
2024-03-04T18:09:04.001Z,11.00
2024-03-04T18:11:34.458Z,12.33
2024-03-04T18:14:03.717Z,10.70
2024-03-04T18:16:31.680Z,11.70
2024-03-04T18:18:59.771Z,11.40
2024-03-04T18:21:27.894Z,11.70
2024-03-04T18:23:56.008Z,11.90
2024-03-04T18:26:23.949Z,11.37
2024-03-04T18:28:54.224Z,11.40
2024-03-04T18:31:25.626Z,12.13
2024-03-04T18:33:54.105Z,13.97
2024-03-04T18:36:22.635Z,13.47
2024-03-04T18:38:50.569Z,14.63
2024-03-04T18:41:20.519Z,12.37
2024-03-04T18:43:49.319Z,12.63
2024-03-04T18:46:18.779Z,13.80
2024-03-04T18:48:46.694Z,13.27
2024-03-04T18:51:15.306Z,11.63
2024-03-04T18:53:45.281Z,11.20
2024-03-04T18:56:15.581Z,13.40
2024-03-04T18:58:44.589Z,11.17
2024-03-04T19:01:15.128Z,11.67
2024-03-04T19:03:44.430Z,13.03
2024-03-04T19:06:12.337Z,12.60
2024-03-04T19:08:40.464Z,14.80
2024-03-04T19:11:15.079Z,14.13
2024-03-04T19:13:44.283Z,12.67
2024-03-04T19:16:12.364Z,14.57
2024-03-04T19:18:40.528Z,12.67
2024-03-04T19:21:17.267Z,13.77
2024-03-04T19:23:45.279Z,13.03
2024-03-04T19:26:19.134Z,13.83
2024-03-04T19:28:48.637Z,13.30
2024-03-04T19:31:21.469Z,12.80
2024-03-04T19:33:50.972Z,12.53
2024-03-04T19:36:20.482Z,13.77
2024-03-04T19:38:48.836Z,13.23
2024-03-04T19:41:21.164Z,13.07
2024-03-04T19:43:51.647Z,12.70
2024-03-04T19:46:20.725Z,12.60
2024-03-04T19:48:49.885Z,11.43
2024-03-04T19:51:19.939Z,13.10
2024-03-04T19:53:49.570Z,13.30
2024-03-04T19:56:18.277Z,13.13
2024-03-04T19:58:47.353Z,12.80
2024-03-04T20:01:16.475Z,13.50
2024-03-04T20:03:45.312Z,13.70
2024-03-04T20:06:13.818Z,13.97
2024-03-04T20:08:43.060Z,14.00
2024-03-04T20:11:15.553Z,12.50
2024-03-04T20:13:44.835Z,13.20
2024-03-04T20:16:18.022Z,13.20
2024-03-04T20:18:46.041Z,13.77
2024-03-04T20:21:16.503Z,13.30
2024-03-04T20:23:47.795Z,12.77
2024-03-04T20:26:19.135Z,14.10
2024-03-04T20:28:47.824Z,12.83
2024-03-04T20:31:20.162Z,12.43
2024-03-04T20:33:49.393Z,12.23
2024-03-04T20:36:19.148Z,13.37
2024-03-04T20:38:47.197Z,14.20
2024-03-04T20:41:16.587Z,12.57
2024-03-04T20:43:44.489Z,14.73
2024-03-04T20:46:14.926Z,12.50
2024-03-04T20:48:44.232Z,14.73
2024-03-04T20:51:13.754Z,13.30
2024-03-04T20:53:41.580Z,12.87
2024-03-04T20:56:10.052Z,15.03
2024-03-04T20:58:40.096Z,13.67
2024-03-04T21:01:08.226Z,12.70
2024-03-04T21:03:36.199Z,14.17
2024-03-04T21:06:05.547Z,12.67
2024-03-04T21:08:33.543Z,15.80
2024-03-04T21:11:01.560Z,15.23
2024-03-04T21:13:29.512Z,14.57
2024-03-04T21:15:59.397Z,14.17
2024-03-04T21:18:27.325Z,15.40
2024-03-04T21:20:55.440Z,15.50
2024-03-04T21:23:23.634Z,15.23
2024-03-04T21:25:51.671Z,15.00
2024-03-04T21:28:19.835Z,14.90
2024-03-04T21:30:47.969Z,14.70
2024-03-04T21:33:17.194Z,15.23
2024-03-04T21:35:45.040Z,15.00
2024-03-04T21:38:12.963Z,13.90
2024-03-04T21:40:40.950Z,16.50
2024-03-04T21:43:08.992Z,13.63
2024-03-04T21:45:37.113Z,13.53
2024-03-04T21:48:05.905Z,13.63
2024-03-04T21:50:35.600Z,13.63
2024-03-04T21:53:04.391Z,13.40
2024-03-04T21:55:32.600Z,14.73
2024-03-04T21:58:05.170Z,14.87
2024-03-04T22:00:33.105Z,14.13
2024-03-04T22:03:03.043Z,13.20
2024-03-04T22:05:30.962Z,14.23
2024-03-04T22:08:01.612Z,13.50
2024-03-04T22:10:29.793Z,13.70
2024-03-04T22:12:57.652Z,12.30
2024-03-04T22:15:25.605Z,13.00
2024-03-04T22:17:53.933Z,14.80
2024-03-04T22:20:22.329Z,12.87
2024-03-04T22:22:50.390Z,13.10
2024-03-04T22:25:20.159Z,13.70
2024-03-04T22:27:47.998Z,13.30
2024-03-04T22:30:16.698Z,11.93
2024-03-04T22:32:44.655Z,13.40
2024-03-04T22:35:12.572Z,12.70
2024-03-04T22:37:40.483Z,12.40
2024-03-04T22:40:09.773Z,13.00
2024-03-04T22:42:39.297Z,13.70
2024-03-04T22:45:07.761Z,12.43
2024-03-04T22:47:35.971Z,13.57
2024-03-04T22:50:04.674Z,11.37
2024-03-04T22:52:32.876Z,11.27
2024-03-04T22:55:00.868Z,12.70
2024-03-04T22:57:28.759Z,12.73
2024-03-04T22:59:58.238Z,11.50
2024-03-04T23:02:26.181Z,14.77
2024-03-04T23:04:54.113Z,12.07
2024-03-04T23:07:22.910Z,12.17
2024-03-04T23:09:50.844Z,12.37
2024-03-04T23:12:18.734Z,15.10
2024-03-04T23:14:46.616Z,12.07
2024-03-04T23:17:15.879Z,12.70
2024-03-04T23:19:45.435Z,11.67
2024-03-04T23:22:13.372Z,13.83
2024-03-04T23:24:41.940Z,12.47
2024-03-04T23:27:10.715Z,12.57
2024-03-04T23:29:38.532Z,13.23
2024-03-04T23:32:08.970Z,12.13
2024-03-04T23:34:38.215Z,12.50
2024-03-04T23:37:06.334Z,11.47
2024-03-04T23:39:35.277Z,13.10
2024-03-04T23:42:03.249Z,12.20
2024-03-04T23:44:31.773Z,11.13
2024-03-04T23:46:59.735Z,12.93
2024-03-04T23:49:27.673Z,13.77
2024-03-04T23:51:57.739Z,13.77
2024-03-04T23:54:25.738Z,12.90
2024-03-04T23:56:53.722Z,15.53
2024-03-04T23:59:21.911Z,10.97
